Time;durP1;ratioP1;P1;durP2;ratioP2;P2;SDS_P1;SDS_P2;PMS_P1;PMS_P2;Temp;Humidity;BMP_temperature;BMP_pressure;BME280_temperature;BME280_humidity;BME280_pressure;Samples;Min_cycle;Max_cycle;Signal;HPM_P1;HPM_P2
2023/01/09 00:01:31;;;;;;;1.10;1.10;;;;;;;8.05;100.00;96694.25;4173051;28;20259;-47
2023/01/09 00:03:33;;;;;;;1.42;1.25;;;;;;;7.99;100.00;96695.34;4170476;28;20810;-46
2023/01/09 00:05:35;;;;;;;1.27;1.17;;;;;;;8.06;100.00;96695.88;4156583;28;20411;-46
2023/01/09 00:07:37;;;;;;;2.42;1.60;;;;;;;8.04;100.00;96698.06;4172685;28;20299;-46
2023/01/09 00:09:38;;;;;;;1.00;1.00;;;;;;;7.99;100.00;96689.91;4174682;28;20255;-46
2023/01/09 00:11:40;;;;;;;1.33;1.23;;;;;;;7.98;100.00;96685.56;4167833;28;20228;-46
2023/01/09 00:13:42;;;;;;;1.50;1.40;;;;;;;8.01;100.00;96683.09;4161097;28;20208;-46
2023/01/09 00:15:43;;;;;;;1.00;1.00;;;;;;;8.04;100.00;96682.56;4175196;28;20906;-46
2023/01/09 00:17:48;;;;;;;0.90;0.90;;;;;;;7.99;100.00;96689.91;4172640;28;20236;-47
2023/01/09 00:19:50;;;;;;;1.27;1.27;;;;;;;8.01;100.00;96685.03;4157349;28;20223;-46
2023/01/09 00:21:52;;;;;;;1.23;1.23;;;;;;;7.99;100.00;96684.47;4178528;28;20439;-46
2023/01/09 00:23:54;;;;;;;1.65;1.55;;;;;;;8.00;100.00;96686.09;4172136;28;21160;-46
2023/01/09 00:26:08;;;;;;;1.30;1.20;;;;;;;8.05;100.00;96684.19;4174750;28;20243;-46
2023/01/09 00:28:09;;;;;;;1.33;1.23;;;;;;;8.07;100.00;96683.88;4161475;28;20575;-46
2023/01/09 00:30:11;;;;;;;1.05;0.98;;;;;;;8.02;100.00;96679.28;4175998;28;20235;-46
2023/01/09 00:32:13;;;;;;;0.93;0.93;;;;;;;8.06;100.00;96679.53;4177050;28;20254;-46
2023/01/09 00:34:15;;;;;;;1.13;1.13;;;;;;;8.10;100.00;96669.72;4170805;28;20219;-47
2023/01/09 00:36:17;;;;;;;1.30;1.30;;;;;;;8.09;100.00;96681.72;4169327;28;20243;-46
2023/01/09 00:38:18;;;;;;;1.10;1.00;;;;;;;8.08;100.00;96683.59;4170745;28;20213;-46
2023/01/09 00:40:20;;;;;;;0.90;0.90;;;;;;;8.07;100.00;96681.97;4170938;28;20597;-47
2023/01/09 00:42:25;;;;;;;1.45;1.40;;;;;;;8.08;100.00;96683.59;4170088;28;20659;-46
2023/01/09 00:44:34;;;;;;;1.02;0.93;;;;;;;8.08;100.00;96689.06;4171535;28;20270;-47
2023/01/09 00:46:39;;;;;;;1.48;1.38;;;;;;;8.10;100.00;96702.41;4170625;28;20302;-47
2023/01/09 00:48:42;;;;;;;0.90;0.90;;;;;;;8.09;100.00;96692.59;4173543;28;20702;-46
2023/01/09 00:50:44;;;;;;;1.10;1.10;;;;;;;8.14;100.00;96689.84;4182672;28;20318;-47
2023/01/09 00:52:47;;;;;;;2.85;1.27;;;;;;;8.12;100.00;96690.13;4183992;28;20295;-46
2023/01/09 00:54:49;;;;;;;0.80;0.80;;;;;;;8.11;100.00;96693.13;4170806;28;20662;-46
2023/01/09 00:56:51;;;;;;;1.50;1.40;;;;;;;8.09;100.00;96689.88;4173209;28;20840;-46
2023/01/09 00:58:52;;;;;;;0.95;0.95;;;;;;;8.10;100.00;96697.75;4172261;28;20298;-46
2023/01/09 01:00:54;;;;;;;0.90;0.90;;;;;;;8.10;100.00;96696.97;4172445;28;20246;-46
2023/01/09 01:02:56;;;;;;;1.70;1.10;;;;;;;8.11;100.00;96701.31;4174615;28;20657;-47
2023/01/09 01:09:39;;;;;;;0.85;0.85;;;;;;;8.06;100.00;96714.94;4171552;28;20215;-47
2023/01/09 01:11:40;;;;;;;0.98;0.90;;;;;;;8.05;100.00;96716.88;4156532;28;20232;-46
2023/01/09 01:13:42;;;;;;;0.90;0.90;;;;;;;8.02;100.00;96722.84;4170721;28;20638;-46
2023/01/09 01:15:44;;;;;;;0.75;0.75;;;;;;;8.03;100.00;96721.75;4172748;28;20234;-46
2023/01/09 01:17:47;;;;;;;1.00;1.00;;;;;;;8.00;100.00;96726.94;4170602;28;20216;-46
2023/01/09 01:19:48;;;;;;;0.82;0.82;;;;;;;7.94;100.00;96728.03;4172141;28;20243;-46
2023/01/09 01:21:50;;;;;;;0.80;0.80;;;;;;;7.93;100.00;96735.41;4171351;28;20258;-46
2023/01/09 01:23:52;;;;;;;1.17;1.08;;;;;;;7.93;100.00;96729.13;4184953;28;20251;-46
2023/01/09 01:25:53;;;;;;;0.90;0.90;;;;;;;7.94;100.00;96738.94;4153157;28;20292;-46
2023/01/09 01:27:55;;;;;;;1.52;1.42;;;;;;;7.98;100.00;96726.41;4170923;28;20208;-46
2023/01/09 01:29:57;;;;;;;0.90;0.90;;;;;;;7.96;100.00;96734.06;4163542;28;20290;-46
2023/01/09 01:31:59;;;;;;;1.40;1.30;;;;;;;7.89;100.00;96728.09;4172399;28;20246;-46
2023/01/09 01:34:00;;;;;;;0.80;0.80;;;;;;;7.91;100.00;96739.50;4169349;28;20211;-46
2023/01/09 01:36:05;;;;;;;0.80;0.80;;;;;;;7.87;100.00;96743.84;4171079;28;20344;-46
2023/01/09 01:38:07;;;;;;;0.80;0.80;;;;;;;7.90;100.00;96737.88;4170650;28;20244;-46
2023/01/09 01:40:10;;;;;;;0.90;0.90;;;;;;;7.87;100.00;96743.84;4169093;28;20299;-47
2023/01/09 01:42:12;;;;;;;0.70;0.70;;;;;;;7.80;100.00;96751.50;4172223;28;20215;-45
2023/01/09 01:44:52;;;;;;;0.93;0.93;;;;;;;7.83;100.00;96750.97;4170519;28;20213;-46
2023/01/09 01:46:54;;;;;;;1.02;0.93;;;;;;;7.84;100.00;96747.16;4186608;28;20310;-47
2023/01/09 01:49:03;;;;;;;1.00;1.00;;;;;;;7.74;100.00;96760.75;4164957;28;20300;-47
2023/01/09 01:51:05;;;;;;;0.85;0.85;;;;;;;7.77;100.00;96761.06;4182435;28;21209;-47
2023/01/09 01:53:17;;;;;;;0.95;0.95;;;;;;;7.72;100.00;96765.69;4156437;28;20239;-46
2023/01/09 01:55:19;;;;;;;3.35;1.25;;;;;;;7.76;100.00;96761.31;4171498;28;20251;-46
2023/01/09 01:57:21;;;;;;;1.10;1.10;;;;;;;7.74;100.00;96758.03;4170359;28;20636;-46
2023/01/09 01:59:26;;;;;;;0.90;0.90;;;;;;;7.69;100.00;96744.47;4166612;28;20235;-47
2023/01/09 02:01:28;;;;;;;0.90;0.90;;;;;;;7.64;100.00;96747.19;4169472;28;20225;-47
2023/01/09 02:03:31;;;;;;;1.00;1.00;;;;;;;7.65;100.00;96748.81;4170933;28;20200;-46
2023/01/09 02:05:34;;;;;;;0.70;0.70;;;;;;;7.68;100.00;96753.72;4173847;28;20231;-47
2023/01/09 02:07:35;;;;;;;0.68;0.68;;;;;;;7.64;100.00;96756.19;4174516;28;20303;-47
2023/01/09 02:09:39;;;;;;;0.98;0.98;;;;;;;7.65;100.00;96755.09;4169499;28;20314;-46
2023/01/09 02:11:44;;;;;;;1.02;1.02;;;;;;;7.64;100.00;96763.50;4185176;28;21030;-46
2023/01/09 02:13:47;;;;;;;0.82;0.82;;;;;;;7.63;100.00;96759.16;4174733;28;20204;-46
2023/01/09 02:15:59;;;;;;;1.15;1.15;;;;;;;7.65;100.00;96773.31;4175175;28;20251;-46
2023/01/09 02:18:26;;;;;;;0.80;0.80;;;;;;;7.58;100.00;96780.94;4165157;28;20208;-46
2023/01/09 02:20:50;;;;;;;0.77;0.77;;;;;;;7.57;100.00;96788.28;4175293;28;20323;-47
2023/01/09 02:23:15;;;;;;;0.90;0.90;;;;;;;7.59;100.00;96780.69;4185636;28;20295;-47
2023/01/09 02:25:39;;;;;;;0.75;0.75;;;;;;;7.53;100.00;96786.38;4169828;28;20204;-46
2023/01/09 02:27:49;;;;;;;0.82;0.82;;;;;;;7.56;100.00;96788.56;4184735;28;20235;-47
2023/01/09 02:30:29;;;;;;;0.90;0.90;;;;;;;7.51;100.00;96794.00;4171108;28;20211;-47
2023/01/09 02:32:44;;;;;;;0.75;0.75;;;;;;;7.50;100.00;96805.97;4169934;28;20227;-46
2023/01/09 02:35:18;;;;;;;0.80;0.80;;;;;;;7.52;100.00;96803.81;4171232;28;20704;-47
2023/01/09 02:38:05;;;;;;;0.80;0.80;;;;;;;7.48;100.00;96805.44;4172746;28;20302;-47
2023/01/09 02:40:27;;;;;;;0.60;0.60;;;;;;;7.50;100.00;96805.97;4146273;28;20211;-45
2023/01/09 02:42:28;;;;;;;0.82;0.82;;;;;;;7.52;100.00;96814.69;4185816;28;20228;-46
2023/01/09 02:44:32;;;;;;;0.80;0.80;;;;;;;7.53;100.00;96819.03;4169229;28;20706;-47
2023/01/09 02:46:34;;;;;;;1.00;1.00;;;;;;;7.43;100.00;96821.78;4169289;28;20237;-46
2023/01/09 02:48:45;;;;;;;1.48;0.80;;;;;;;7.47;100.00;96822.84;4170545;28;21993;-46
2023/01/09 02:51:11;;;;;;;1.13;1.13;;;;;;;7.48;100.00;96830.75;4170355;28;20273;-46
2023/01/09 02:53:41;;;;;;;0.77;0.77;;;;;;;7.47;100.00;96831.84;4169676;28;20690;-46
2023/01/09 02:55:52;;;;;;;0.80;0.80;;;;;;;7.48;100.00;96833.47;4169201;28;20319;-46
2023/01/09 02:58:25;;;;;;;0.70;0.70;;;;;;;7.41;100.00;96829.38;4167122;28;20236;-47
2023/01/09 03:00:52;;;;;;;0.80;0.75;;;;;;;7.40;100.00;96811.41;4168089;28;20321;-47
2023/01/09 03:03:06;;;;;;;0.80;0.80;;;;;;;7.43;100.00;96824.50;4153649;28;20208;-47
2023/01/09 03:05:14;;;;;;;1.27;1.17;;;;;;;7.38;100.00;96824.47;4169300;28;20200;-48
2023/01/09 03:07:30;;;;;;;0.80;0.80;;;;;;;7.43;100.00;96827.22;4168297;28;20247;-46
2023/01/09 03:09:35;;;;;;;0.80;0.80;;;;;;;7.43;100.00;96838.09;4170464;28;20200;-46
2023/01/09 03:11:43;;;;;;;0.85;0.85;;;;;;;7.38;100.00;96838.06;4168202;28;20231;-45
2023/01/09 03:13:54;;;;;;;1.05;0.70;;;;;;;7.33;100.00;96836.19;4185001;28;20230;-46
2023/01/09 03:15:57;;;;;;;1.40;0.93;;;;;;;7.26;100.00;96842.97;4169500;28;20294;-47
2023/01/09 03:17:59;;;;;;;0.70;0.70;;;;;;;7.31;100.00;96853.84;4187159;28;20210;-46
2023/01/09 03:20:04;;;;;;;0.75;0.75;;;;;;;7.24;100.00;96843.25;4172400;28;20290;-46
2023/01/09 03:22:06;;;;;;;0.80;0.80;;;;;;;7.25;100.00;96855.75;4172568;28;20680;-48
2023/01/09 03:24:08;;;;;;;1.45;1.35;;;;;;;7.25;100.00;96873.97;4170969;28;20207;-46
2023/01/09 03:26:10;;;;;;;0.90;0.90;;;;;;;7.12;100.00;96880.75;4170837;28;20282;-46
2023/01/09 03:28:29;;;;;;;0.60;0.60;;;;;;;7.13;100.00;96873.38;4187779;28;20303;-46
2023/01/09 03:30:32;;;;;;;0.70;0.70;;;;;;;7.10;100.00;96882.09;4172794;28;20227;-46
2023/01/09 03:32:34;;;;;;;0.82;0.82;;;;;;;7.04;100.00;96880.44;4172057;28;20212;-46
2023/01/09 03:34:36;;;;;;;0.70;0.70;;;;;;;7.01;100.00;96889.13;4154939;28;20256;-46
2023/01/09 03:36:38;;;;;;;0.98;0.90;;;;;;;7.01;100.00;96883.69;4171866;28;20315;-46
2023/01/09 03:38:40;;;;;;;0.88;0.88;;;;;;;7.04;100.00;96894.03;4171884;28;20234;-47
2023/01/09 03:40:42;;;;;;;1.00;1.00;;;;;;;7.01;100.00;96883.69;4173865;28;20717;-46
2023/01/09 03:42:44;;;;;;;0.98;0.98;;;;;;;6.98;100.00;96895.09;4175013;28;20298;-46
2023/01/09 03:44:46;;;;;;;1.17;1.08;;;;;;;6.93;100.00;96897.81;4176694;28;20212;-46
2023/01/09 03:46:49;;;;;;;0.68;0.68;;;;;;;6.93;100.00;96897.81;4170601;28;20312;-46
2023/01/09 03:48:50;;;;;;;0.80;0.80;;;;;;;6.96;100.00;96908.16;4173046;28;20215;-46
2023/01/09 03:50:53;;;;;;;0.95;0.95;;;;;;;6.89;100.00;96924.72;4183305;28;20258;-46
2023/01/09 03:52:55;;;;;;;0.63;0.63;;;;;;;6.92;100.00;96928.78;4175142;28;20244;-46
2023/01/09 03:54:57;;;;;;;0.70;0.70;;;;;;;6.89;100.00;96940.22;4173720;28;20208;-45
2023/01/09 03:56:58;;;;;;;0.77;0.77;;;;;;;6.97;100.00;96931.53;4172883;28;20211;-46
2023/01/09 03:59:00;;;;;;;0.82;0.75;;;;;;;6.92;100.00;96943.22;4169833;28;20283;-46
2023/01/09 04:01:04;;;;;;;0.60;0.60;;;;;;;6.93;100.00;96953.00;4170928;28;20315;-46
2023/01/09 04:03:07;;;;;;;0.70;0.70;;;;;;;6.94;100.00;96953.81;4171623;28;20215;-45
2023/01/09 04:05:09;;;;;;;0.80;0.80;;;;;;;6.87;100.00;96964.94;4173599;28;20294;-46
2023/01/09 04:07:11;;;;;;;0.75;0.75;;;;;;;6.83;100.00;96979.31;4174657;28;20585;-46
2023/01/09 04:09:12;;;;;;;2.42;0.85;;;;;;;6.87;100.00;96972.25;4169255;28;20304;-47
2023/01/09 04:11:16;;;;;;;0.80;0.80;;;;;;;6.83;100.00;96979.31;4172729;28;20662;-46
2023/01/09 04:13:18;;;;;;;1.00;1.00;;;;;;;6.82;100.00;96980.41;4171828;28;20208;-47
2023/01/09 04:15:21;;;;;;;0.80;0.80;;;;;;;6.80;100.00;96985.28;4172481;28;20250;-46
2023/01/09 04:17:22;;;;;;;0.77;0.77;;;;;;;6.71;100.00;96978.72;4172624;28;20216;-47
2023/01/09 04:19:24;;;;;;;0.77;0.60;;;;;;;6.64;100.00;96980.84;4156357;28;20296;-46
2023/01/09 04:21:26;;;;;;;0.60;0.60;;;;;;;6.66;100.00;96984.09;4172258;28;20259;-46
2023/01/09 04:23:28;;;;;;;1.45;1.10;;;;;;;6.71;100.00;96986.88;4172248;28;20239;-46
2023/01/09 04:25:29;;;;;;;0.63;0.63;;;;;;;6.70;100.00;96975.16;4171305;28;20255;-46
2023/01/09 04:27:31;;;;;;;0.77;0.77;;;;;;;6.67;100.00;96985.75;4175069;28;20232;-46
2023/01/09 04:29:33;;;;;;;2.65;0.90;;;;;;;6.63;100.00;96995.53;4171415;28;20228;-46
2023/01/09 04:31:34;;;;;;;0.82;0.82;;;;;;;6.57;100.00;97002.00;4173264;28;20234;-45
2023/01/09 04:33:36;;;;;;;0.95;0.95;;;;;;;6.61;100.00;97008.53;4172821;28;20231;-46
2023/01/09 04:35:38;;;;;;;1.23;1.13;;;;;;;6.60;100.00;97017.75;4177280;28;20272;-46
2023/01/09 04:37:39;;;;;;;1.02;0.98;;;;;;;6.54;100.00;97010.66;4176444;28;20231;-45
2023/01/09 04:39:44;;;;;;;0.80;0.80;;;;;;;6.55;100.00;97009.59;4171217;28;20906;-46
2023/01/09 04:41:49;;;;;;;0.80;0.73;;;;;;;6.46;100.00;97011.97;4182906;28;20220;-45
2023/01/09 04:43:51;;;;;;;0.82;0.82;;;;;;;6.41;100.00;97008.38;4181890;28;20208;-45
2023/01/09 04:45:52;;;;;;;2.15;0.85;;;;;;;6.41;100.00;97011.09;4151093;28;20605;-46
2023/01/09 04:47:54;;;;;;;0.82;0.70;;;;;;;6.39;100.00;97018.69;4170211;28;20208;-45
2023/01/09 04:49:56;;;;;;;0.68;0.68;;;;;;;6.32;100.00;97021.66;4170764;28;20291;-45
2023/01/09 04:51:58;;;;;;;0.75;0.75;;;;;;;6.37;100.00;97018.97;4173069;28;21299;-45
2023/01/09 04:54:00;;;;;;;0.70;0.70;;;;;;;6.33;100.00;97022.47;4167974;28;20209;-46
2023/01/09 04:56:01;;;;;;;0.80;0.80;;;;;;;6.21;100.00;97021.81;4188533;28;20223;-45
2023/01/09 04:58:03;;;;;;;3.25;0.90;;;;;;;6.24;100.00;97016.69;4174913;28;20235;-45
2023/01/09 05:00:10;;;;;;;0.73;0.73;;;;;;;6.18;100.00;97019.63;4168671;28;20217;-45
2023/01/09 05:02:12;;;;;;;1.75;1.00;;;;;;;6.21;100.00;97025.34;4172840;28;20200;-46
2023/01/09 05:04:14;;;;;;;2.90;0.70;;;;;;;6.11;100.00;97029.88;4169209;28;20258;-46
2023/01/09 05:06:16;;;;;;;3.22;0.98;;;;;;;6.06;100.00;97029.81;4170689;28;20977;-45
2023/01/09 05:08:18;;;;;;;1.02;0.90;;;;;;;6.07;100.00;97036.88;4184584;28;20725;-46
2023/01/09 05:10:20;;;;;;;0.90;0.90;;;;;;;6.11;100.00;97036.16;4173633;28;20629;-46
2023/01/09 05:12:22;;;;;;;0.93;0.90;;;;;;;6.11;100.00;97046.16;4170413;28;20364;-45
2023/01/09 05:14:23;;;;;;;0.93;0.80;;;;;;;6.13;100.00;97057.59;4172059;28;20207;-46
2023/01/09 05:16:25;;;;;;;1.00;1.00;;;;;;;6.07;100.00;97058.63;4168283;28;20302;-46
2023/01/09 05:18:27;;;;;;;1.17;0.90;;;;;;;6.06;100.00;97059.69;4169891;28;20218;-45
2023/01/09 05:20:29;;;;;;;0.90;0.90;;;;;;;6.05;100.00;97060.78;4169761;28;20266;-44
2023/01/09 05:22:30;;;;;;;2.95;0.95;;;;;;;6.10;100.00;97063.53;4169702;28;20223;-45
2023/01/09 05:24:32;;;;;;;1.25;1.15;;;;;;;6.18;100.00;97073.94;4165651;28;20258;-45
2023/01/09 05:26:34;;;;;;;1.35;1.27;;;;;;;6.14;100.00;97067.38;4169026;28;20296;-45
2023/01/09 05:28:35;;;;;;;1.00;0.88;;;;;;;6.19;100.00;97067.41;4167436;28;20240;-45
2023/01/09 05:30:37;;;;;;;0.90;0.90;;;;;;;6.14;100.00;97070.91;4154195;28;20271;-45
2023/01/09 05:32:39;;;;;;;4.00;0.80;;;;;;;6.17;100.00;97075.81;4167470;28;20303;-45
2023/01/09 05:34:41;;;;;;;0.85;0.85;;;;;;;6.14;100.00;97073.63;4170737;28;20261;-45
2023/01/09 05:36:42;;;;;;;1.98;0.73;;;;;;;6.14;100.00;97083.66;4172456;28;20310;-46
2023/01/09 05:38:44;;;;;;;3.50;1.33;;;;;;;6.15;100.00;97088.03;4168178;28;21029;-46
2023/01/09 05:40:46;;;;;;;0.90;0.90;;;;;;;6.14;100.00;97089.09;4164865;28;20334;-45
2023/01/09 05:42:47;;;;;;;1.00;1.00;;;;;;;6.14;100.00;97094.53;4171052;28;20569;-46
2023/01/09 05:44:49;;;;;;;0.90;0.90;;;;;;;6.13;100.00;97092.88;4166848;28;20243;-44
2023/01/09 05:46:51;;;;;;;1.15;1.05;;;;;;;6.14;100.00;97102.66;4170512;28;20287;-46
2023/01/09 05:48:52;;;;;;;1.63;0.93;;;;;;;6.06;100.00;97106.69;4170596;28;20624;-46
2023/01/09 05:50:54;;;;;;;2.85;0.70;;;;;;;6.08;100.00;97090.94;4166592;28;20251;-46
2023/01/09 05:52:56;;;;;;;0.85;0.85;;;;;;;6.08;100.00;97095.56;4164819;28;20626;-45
2023/01/09 05:54:58;;;;;;;1.50;1.15;;;;;;;6.05;100.00;97101.50;4167140;28;20247;-45
2023/01/09 05:56:59;;;;;;;1.00;0.70;;;;;;;6.14;100.00;97105.38;4169232;28;20319;-46
2023/01/09 05:59:01;;;;;;;3.65;1.38;;;;;;;6.11;100.00;97100.47;4167464;28;20215;-46
2023/01/09 06:01:03;;;;;;;0.77;0.77;;;;;;;6.15;100.00;97101.63;4181500;28;20311;-46
2023/01/09 06:03:04;;;;;;;1.23;1.23;;;;;;;6.10;100.00;97098.84;4166298;28;20211;-46
2023/01/09 06:05:07;;;;;;;4.03;1.85;;;;;;;6.14;100.00;97089.91;4168910;28;20269;-45
2023/01/09 06:07:09;;;;;;;2.38;1.10;;;;;;;6.08;100.00;97098.28;4153347;28;20304;-46
2023/01/09 06:09:10;;;;;;;0.90;0.80;;;;;;;6.15;100.00;97096.19;4168670;28;20239;-46
2023/01/09 06:11:12;;;;;;;1.42;1.00;;;;;;;6.11;100.00;97089.63;4166599;28;20232;-45
2023/01/09 06:13:14;;;;;;;1.23;1.10;;;;;;;6.09;100.00;97102.63;4166854;28;20294;-46
2023/01/09 06:15:16;;;;;;;0.82;0.82;;;;;;;6.09;100.00;97105.34;4168798;28;20577;-45
2023/01/09 06:17:19;;;;;;;1.40;1.30;;;;;;;6.11;100.00;97100.47;4166073;28;20301;-47
2023/01/09 06:19:23;;;;;;;3.90;1.20;;;;;;;6.09;100.00;97102.63;4151799;28;20258;-46
2023/01/09 06:21:28;;;;;;;1.55;1.40;;;;;;;6.05;100.00;97096.91;4167514;28;20733;-45
2023/01/09 06:23:35;;;;;;;1.58;1.48;;;;;;;6.08;100.00;97106.44;4154320;28;20213;-46
2023/01/09 06:25:41;;;;;;;2.08;1.10;;;;;;;6.06;100.00;97111.28;4156341;28;20443;-45
2023/01/09 06:27:48;;;;;;;0.82;0.70;;;;;;;6.10;100.00;97109.69;4167661;28;20212;-47
2023/01/09 06:29:50;;;;;;;1.48;0.95;;;;;;;6.03;100.00;97104.47;4171320;28;20204;-46
2023/01/09 06:31:52;;;;;;;7.63;1.55;;;;;;;6.06;100.00;97101.25;4166977;28;20322;-46
2023/01/09 06:33:54;;;;;;;1.30;1.20;;;;;;;6.10;100.00;97105.06;4160505;28;20205;-46
2023/01/09 06:35:55;;;;;;;1.45;1.35;;;;;;;6.10;100.00;97115.13;4167285;28;20235;-46
2023/01/09 06:38:00;;;;;;;2.53;1.50;;;;;;;6.11;100.00;97101.31;4168659;28;20539;-47
2023/01/09 06:40:02;;;;;;;0.85;0.85;;;;;;;6.14;100.00;97099.94;4165273;28;20212;-47
2023/01/09 06:42:04;;;;;;;2.05;1.17;;;;;;;6.16;100.00;97103.25;4167336;28;20218;-46
2023/01/09 06:44:06;;;;;;;2.70;1.50;;;;;;;6.18;100.00;97109.22;4164355;28;20216;-46
2023/01/09 06:46:08;;;;;;;3.10;1.25;;;;;;;6.18;100.00;97117.38;4169767;28;20208;-47
2023/01/09 06:48:10;;;;;;;0.73;0.73;;;;;;;6.21;100.00;97119.56;4168865;28;20726;-46
2023/01/09 06:50:12;;;;;;;1.85;1.75;;;;;;;6.15;100.00;97131.47;4167254;28;20250;-47
2023/01/09 06:52:14;;;;;;;3.17;1.55;;;;;;;6.17;100.00;97129.31;4170413;28;20231;-47
2023/01/09 06:54:20;;;;;;;1.50;1.10;;;;;;;6.15;100.00;97135.00;4155020;28;20237;-47
2023/01/09 06:56:22;;;;;;;1.88;1.50;;;;;;;6.11;100.00;97133.06;4167148;28;20285;-47
2023/01/09 06:58:23;;;;;;;1.23;1.23;;;;;;;6.14;100.00;97137.97;4166374;28;20299;-48
2023/01/09 07:00:26;;;;;;;1.25;0.95;;;;;;;6.11;100.00;97135.78;4166981;28;20914;-46
2023/01/09 07:02:28;;;;;;;1.35;0.90;;;;;;;6.12;100.00;97137.41;4165592;28;20608;-46
2023/01/09 07:04:29;;;;;;;1.60;1.00;;;;;;;6.10;100.00;97147.72;4168617;28;20216;-47
2023/01/09 07:06:31;;;;;;;2.03;0.95;;;;;;;6.08;100.00;97149.88;4171584;28;20199;-47
2023/01/09 07:08:33;;;;;;;0.82;0.82;;;;;;;6.09;100.00;97146.06;4169099;28;20211;-47
2023/01/09 07:10:35;;;;;;;6.05;0.90;;;;;;;6.08;100.00;97155.31;4170710;28;20270;-46
2023/01/09 07:12:37;;;;;;;0.80;0.80;;;;;;;6.09;100.00;97148.78;4165824;28;20207;-47
2023/01/09 07:14:39;;;;;;;1.73;0.90;;;;;;;6.04;100.00;97143.31;4167684;28;20682;-47
2023/01/09 07:16:41;;;;;;;1.30;1.20;;;;;;;6.10;100.00;97142.28;4167834;28;20224;-47
2023/01/09 07:18:43;;;;;;;0.77;0.75;;;;;;;6.08;100.00;97149.88;4179194;28;20207;-46
2023/01/09 07:20:45;;;;;;;0.50;0.50;;;;;;;6.05;100.00;97145.78;4163319;28;20240;-46
2023/01/09 07:22:47;;;;;;;0.95;0.93;;;;;;;6.13;100.00;97142.59;4168835;28;20716;-47
2023/01/09 07:24:49;;;;;;;0.90;0.90;;;;;;;6.10;100.00;97153.94;4157006;28;20220;-46
2023/01/09 07:26:51;;;;;;;0.90;0.90;;;;;;;6.10;100.00;97147.72;4163139;28;20208;-47
2023/01/09 07:28:53;;;;;;;3.03;0.90;;;;;;;6.13;100.00;97152.63;4153070;28;20236;-46
2023/01/09 07:30:55;;;;;;;1.00;1.00;;;;;;;6.08;100.00;97149.88;4164114;28;20811;-47
2023/01/09 07:32:56;;;;;;;1.25;1.15;;;;;;;6.07;100.00;97142.78;4171791;28;20322;-46
2023/01/09 07:34:58;;;;;;;2.08;1.17;;;;;;;6.14;100.00;97154.25;4160029;28;20268;-46
2023/01/09 07:37:00;;;;;;;0.80;0.80;;;;;;;6.07;100.00;97142.78;4170271;28;20231;-46
2023/01/09 07:39:02;;;;;;;1.75;0.95;;;;;;;6.07;100.00;97153.63;4169770;28;20287;-47
2023/01/09 07:41:04;;;;;;;1.75;0.80;;;;;;;6.08;100.00;97166.16;4171236;28;20315;-46
2023/01/09 07:43:06;;;;;;;1.02;0.68;;;;;;;6.10;100.00;97156.66;4168819;28;20900;-46
2023/01/09 07:45:08;;;;;;;1.98;0.98;;;;;;;6.14;100.00;97168.66;4171402;28;20208;-47
2023/01/09 07:47:10;;;;;;;1.23;0.90;;;;;;;6.13;100.00;97169.75;4167892;28;20205;-47
2023/01/09 07:49:12;;;;;;;0.90;0.90;;;;;;;6.16;100.00;97171.13;4168829;28;20216;-47
2023/01/09 07:51:14;;;;;;;1.23;0.90;;;;;;;6.07;100.00;97165.31;4166703;28;20244;-47
2023/01/09 07:53:16;;;;;;;0.70;0.70;;;;;;;6.10;100.00;97159.38;4165986;28;20265;-46
2023/01/09 07:55:18;;;;;;;1.30;1.02;;;;;;;6.02;100.00;97167.19;4172213;28;20235;-46
2023/01/09 07:57:20;;;;;;;2.17;1.00;;;;;;;6.04;100.00;97159.59;4167995;28;20577;-46
2023/01/09 07:59:22;;;;;;;3.80;1.08;;;;;;;6.08;100.00;97171.59;4170845;28;20200;-47
2023/01/09 08:01:24;;;;;;;5.88;0.75;;;;;;;6.04;100.00;97163.09;4174664;28;20319;-46
2023/01/09 08:03:26;;;;;;;1.38;1.10;;;;;;;6.01;100.00;97160.91;4172340;28;20249;-46
2023/01/09 08:05:27;;;;;;;1.00;0.88;;;;;;;5.99;100.00;97162.25;4168884;28;21177;-46
2023/01/09 08:07:29;;;;;;;0.80;0.80;;;;;;;6.01;100.00;97166.34;4167453;28;20208;-46
2023/01/09 08:09:31;;;;;;;0.73;0.70;;;;;;;6.05;100.00;97156.63;4166763;28;20204;-46
2023/01/09 08:11:33;;;;;;;0.90;0.90;;;;;;;6.02;100.00;97157.13;4170505;28;20303;-46
2023/01/09 08:13:34;;;;;;;1.17;1.17;;;;;;;6.06;100.00;97173.72;4170669;28;20200;-47
2023/01/09 08:15:36;;;;;;;2.15;1.40;;;;;;;6.04;100.00;97178.59;4170360;28;20235;-47
2023/01/09 08:17:40;;;;;;;0.93;0.90;;;;;;;6.05;100.00;97162.06;4159869;28;20224;-46
2023/01/09 08:19:43;;;;;;;0.80;0.80;;;;;;;6.09;100.00;97173.22;4175576;28;20204;-47
2023/01/09 08:21:44;;;;;;;0.80;0.80;;;;;;;6.05;100.00;97177.50;4172369;28;20229;-47
2023/01/09 08:23:46;;;;;;;0.60;0.60;;;;;;;6.08;100.00;97177.81;4160435;28;20252;-47
2023/01/09 08:25:48;;;;;;;0.88;0.88;;;;;;;6.13;100.00;97179.78;4173042;28;20200;-47
2023/01/09 08:27:50;;;;;;;2.03;1.13;;;;;;;6.13;100.00;97187.91;4169265;28;20304;-46
2023/01/09 08:29:51;;;;;;;1.48;1.38;;;;;;;6.10;100.00;97183.00;4171303;28;20295;-46
2023/01/09 08:31:53;;;;;;;0.70;0.70;;;;;;;6.09;100.00;97178.66;4170766;28;20766;-46
2023/01/09 08:33:55;;;;;;;1.73;0.82;;;;;;;6.12;100.00;97183.56;4171600;28;20243;-46
2023/01/09 08:35:57;;;;;;;0.80;0.80;;;;;;;6.15;100.00;97173.03;4174275;28;20216;-48
2023/01/09 08:37:59;;;;;;;2.33;1.20;;;;;;;6.15;100.00;97183.06;4168346;28;20672;-46
2023/01/09 08:40:01;;;;;;;1.23;0.95;;;;;;;6.13;100.00;97182.50;4170953;28;20720;-46
2023/01/09 08:49:03;;;;;;;0.90;0.90;;;;;;;6.14;100.00;97193.09;4171434;28;20215;-47
2023/01/09 08:51:05;;;;;;;0.85;0.85;;;;;;;6.20;100.00;97202.13;4172368;28;20270;-47
2023/01/09 08:53:06;;;;;;;0.70;0.70;;;;;;;6.19;100.00;97190.44;4181045;28;20208;-46
2023/01/09 08:55:08;;;;;;;0.85;0.85;;;;;;;6.23;100.00;97190.75;4168333;28;20737;-47
2023/01/09 08:57:10;;;;;;;1.58;1.27;;;;;;;6.21;100.00;97187.47;4168445;28;20342;-46
2023/01/09 08:59:12;;;;;;;0.95;0.95;;;;;;;6.21;100.00;97193.72;4165355;28;20733;-47
2023/01/09 09:01:13;;;;;;;1.00;0.90;;;;;;;6.25;100.00;97191.31;4168141;28;20306;-46
2023/01/09 09:03:16;;;;;;;1.35;1.25;;;;;;;6.19;100.00;97186.91;4170513;28;20871;-47
2023/01/09 09:05:18;;;;;;;0.90;0.90;;;;;;;6.29;100.00;97192.47;4161479;28;20868;-46
2023/01/09 09:07:25;;;;;;;0.75;0.75;;;;;;;6.24;100.00;97192.41;4172215;28;20566;-46
2023/01/09 09:09:27;;;;;;;1.52;1.27;;;;;;;6.24;100.00;97187.78;4155697;28;20216;-46
2023/01/09 09:11:29;;;;;;;1.25;1.15;;;;;;;6.28;100.00;97188.09;4169315;28;20327;-47
2023/01/09 09:13:31;;;;;;;1.85;1.17;;;;;;;6.26;100.00;97195.66;4169084;28;20252;-46
2023/01/09 09:15:33;;;;;;;2.53;0.98;;;;;;;6.29;100.00;97200.59;4167633;28;20298;-46
2023/01/09 09:17:35;;;;;;;0.80;0.80;;;;;;;6.25;100.00;97194.03;4169796;28;20694;-47
2023/01/09 09:19:38;;;;;;;1.20;1.00;;;;;;;6.21;100.00;97190.19;4167757;28;20291;-47
2023/01/09 09:21:40;;;;;;;1.85;0.82;;;;;;;6.25;100.00;97207.63;4166888;28;20402;-47
2023/01/09 09:23:43;;;;;;;1.20;1.10;;;;;;;6.27;100.00;97197.31;4170695;28;20219;-46
2023/01/09 09:25:45;;;;;;;0.85;0.85;;;;;;;6.25;100.00;97200.31;4170818;28;20643;-46
2023/01/09 09:27:47;;;;;;;0.75;0.75;;;;;;;6.29;100.00;97206.84;4169623;28;20246;-47
2023/01/09 09:29:49;;;;;;;1.50;1.23;;;;;;;6.23;100.00;97204.34;4167542;28;20209;-46
2023/01/09 09:31:51;;;;;;;3.42;1.20;;;;;;;6.26;100.00;97206.53;4169699;28;20232;-47
2023/01/09 09:33:55;;;;;;;1.38;0.80;;;;;;;6.33;100.00;97213.41;4169110;28;20212;-47
2023/01/09 09:35:57;;;;;;;1.13;0.95;;;;;;;6.33;100.00;97208.00;4167582;28;20920;-46
2023/01/09 09:38:01;;;;;;;7.82;0.82;;;;;;;6.36;100.00;97210.19;4163172;28;20228;-46
2023/01/09 09:40:06;;;;;;;0.90;0.90;;;;;;;6.34;100.00;97208.78;4165358;28;20271;-46
2023/01/09 09:45:08;;;;;;;1.73;1.58;;;;;;;6.38;100.00;97210.75;4170582;28;20283;-46
2023/01/09 09:47:22;;;;;;;1.60;1.50;;;;;;;6.41;100.00;97215.66;4168751;28;20673;-47
2023/01/09 09:49:52;;;;;;;1.83;1.40;;;;;;;6.38;100.00;97215.38;4170880;28;20680;-47
2023/01/09 09:52:10;;;;;;;0.60;0.60;;;;;;;6.44;100.00;97217.06;4157865;28;20289;-47
2023/01/09 09:54:19;;;;;;;0.70;0.70;;;;;;;6.50;100.00;97224.19;4170011;28;20220;-46
2023/01/09 09:56:22;;;;;;;0.75;0.75;;;;;;;6.52;100.00;97224.75;4168403;28;20383;-47
2023/01/09 09:58:51;;;;;;;0.77;0.77;;;;;;;6.55;100.00;97226.97;4183587;28;20655;-46
2023/01/09 10:00:54;;;;;;;1.25;1.15;;;;;;;6.61;100.00;97226.75;4170256;28;20269;-46